Time;durP1;ratioP1;P1;durP2;ratioP2;P2;SDS_P1;SDS_P2;PMS_P1;PMS_P2;Temp;Humidity;BMP_temperature;BMP_pressure;BME280_temperature;BME280_humidity;BME280_pressure;Samples;Min_cycle;Max_cycle;Signal;HPM_P1;HPM_P2
2022/10/01 00:01:35;;;;;;;4.90;3.30;;;13.20;99.90;;;;;;5074979;28;20056;-87
2022/10/01 00:04:00;;;;;;;4.03;2.13;;;13.20;99.90;;;;;;5075215;28;20028;-87
2022/10/01 00:06:26;;;;;;;3.28;2.30;;;13.20;99.90;;;;;;5078232;28;20062;-86
2022/10/01 00:08:52;;;;;;;3.55;2.53;;;13.20;99.90;;;;;;5091905;28;20048;-87
2022/10/01 00:11:24;;;;;;;4.85;3.65;;;13.20;99.90;;;;;;5089832;28;20097;-88
2022/10/01 00:13:52;;;;;;;3.20;2.30;;;13.20;99.90;;;;;;5087916;28;20028;-87
2022/10/01 00:16:21;;;;;;;4.18;2.50;;;13.20;99.90;;;;;;5067469;28;20031;-87
2022/10/01 00:18:47;;;;;;;4.30;2.47;;;13.20;99.90;;;;;;5090033;28;20574;-87
2022/10/01 00:21:19;;;;;;;3.63;2.30;;;13.20;99.90;;;;;;5043621;28;20454;-86
2022/10/01 00:23:45;;;;;;;4.38;2.50;;;13.20;99.90;;;;;;5095072;28;20016;-86
2022/10/01 00:26:12;;;;;;;4.47;3.05;;;13.20;99.90;;;;;;5053071;28;20044;-88
2022/10/01 00:28:38;;;;;;;10.55;2.80;;;13.20;99.90;;;;;;5090858;28;20413;-86
2022/10/01 00:31:06;;;;;;;3.58;1.90;;;13.20;99.90;;;;;;5091563;28;20043;-88
2022/10/01 00:33:32;;;;;;;5.35;2.60;;;13.20;99.90;;;;;;5091295;28;20023;-87
2022/10/01 00:35:58;;;;;;;6.53;3.22;;;13.20;99.90;;;;;;5075809;28;20024;-87
2022/10/01 00:38:23;;;;;;;4.70;2.45;;;13.20;99.90;;;;;;5072906;28;20444;-87
2022/10/01 00:40:50;;;;;;;7.60;3.33;;;13.20;99.90;;;;;;5085795;28;20115;-87
2022/10/01 00:43:22;;;;;;;4.22;2.53;;;13.20;99.90;;;;;;5084384;28;20031;-86
2022/10/01 00:45:56;;;;;;;4.47;2.45;;;13.20;99.90;;;;;;5066316;28;20036;-86
2022/10/01 00:48:23;;;;;;;3.60;2.85;;;13.20;99.90;;;;;;5070500;28;20088;-88
2022/10/01 00:50:50;;;;;;;5.50;3.13;;;13.10;99.90;;;;;;5086779;28;20028;-86
2022/10/01 00:53:18;;;;;;;5.10;3.53;;;13.10;99.90;;;;;;5075071;28;20028;-86
2022/10/01 00:55:50;;;;;;;6.80;2.80;;;13.20;99.90;;;;;;5071736;28;20051;-87
2022/10/01 00:58:17;;;;;;;4.10;3.00;;;13.20;99.90;;;;;;5063872;28;20052;-86
2022/10/01 01:00:43;;;;;;;4.15;2.53;;;13.20;99.90;;;;;;5063702;28;20024;-86
2022/10/01 01:03:10;;;;;;;6.82;3.17;;;13.20;99.90;;;;;;5070058;28;20496;-87
2022/10/01 01:05:38;;;;;;;5.43;3.72;;;13.20;99.90;;;;;;5083178;28;20016;-87
2022/10/01 01:08:04;;;;;;;5.43;3.22;;;13.20;99.90;;;;;;5072504;28;20020;-87
2022/10/01 01:10:40;;;;;;;7.10;3.17;;;13.20;99.90;;;;;;5076043;28;20370;-88
2022/10/01 01:13:17;;;;;;;5.70;3.70;;;13.20;99.90;;;;;;5063176;28;20111;-86
2022/10/01 01:15:48;;;;;;;3.65;2.92;;;13.20;99.90;;;;;;5083705;28;20033;-86
2022/10/01 01:18:18;;;;;;;12.05;3.80;;;13.20;99.90;;;;;;5089863;28;20397;-86
2022/10/01 01:20:53;;;;;;;5.07;3.42;;;13.20;99.90;;;;;;5066815;28;20178;-86
2022/10/01 01:23:28;;;;;;;5.32;2.90;;;13.20;99.90;;;;;;5059645;28;20024;-85
2022/10/01 01:26:09;;;;;;;5.32;3.20;;;13.20;99.90;;;;;;5084574;28;20020;-85
2022/10/01 01:28:51;;;;;;;6.10;3.22;;;13.20;99.90;;;;;;5086752;28;20052;-85
2022/10/01 01:31:24;;;;;;;4.78;3.38;;;13.20;99.90;;;;;;5083972;28;20028;-86
2022/10/01 01:33:54;;;;;;;5.40;3.25;;;13.10;99.90;;;;;;5090049;28;20136;-84
2022/10/01 01:36:27;;;;;;;3.85;2.78;;;13.10;99.90;;;;;;5071855;28;20024;-85
2022/10/01 01:38:58;;;;;;;4.53;3.13;;;13.10;99.90;;;;;;5080965;28;20027;-86
2022/10/01 01:41:31;;;;;;;5.18;3.40;;;13.10;99.90;;;;;;5089689;28;20055;-87
2022/10/01 01:44:02;;;;;;;5.43;2.85;;;13.10;99.90;;;;;;5093924;28;20270;-85
2022/10/01 01:46:35;;;;;;;6.40;2.80;;;13.20;99.90;;;;;;5070454;28;22021;-87
2022/10/01 01:49:04;;;;;;;3.67;2.85;;;13.10;99.90;;;;;;5071836;28;20089;-86
2022/10/01 01:51:55;;;;;;;4.60;3.00;;;13.10;99.90;;;;;;5069732;28;20028;-87
2022/10/01 01:54:28;;;;;;;3.30;2.58;;;13.20;99.90;;;;;;5086790;28;20034;-87
2022/10/01 01:56:57;;;;;;;5.35;3.15;;;13.10;99.90;;;;;;5072836;28;20104;-87
2022/10/01 01:59:24;;;;;;;4.10;2.83;;;13.10;99.90;;;;;;5069610;28;20036;-87
2022/10/01 02:01:50;;;;;;;5.28;2.60;;;13.20;99.90;;;;;;5074036;28;20095;-87
2022/10/01 02:04:26;;;;;;;6.43;3.08;;;13.20;99.90;;;;;;5076728;28;20028;-87
2022/10/01 02:07:25;;;;;;;5.90;3.25;;;13.10;99.90;;;;;;5073716;28;20028;-88
2022/10/01 02:10:23;;;;;;;4.05;2.72;;;13.20;99.90;;;;;;5093032;28;20017;-88
2022/10/01 02:13:16;;;;;;;5.32;2.90;;;13.10;99.90;;;;;;5047377;28;20039;-88
2022/10/01 02:16:03;;;;;;;4.78;3.08;;;13.10;99.90;;;;;;5073879;28;20081;-88
2022/10/01 02:18:53;;;;;;;5.80;2.83;;;13.10;99.90;;;;;;5080278;28;20040;-88
2022/10/01 02:21:26;;;;;;;4.88;3.38;;;13.20;99.90;;;;;;5070694;28;20028;-88
2022/10/01 02:24:18;;;;;;;3.30;2.83;;;13.10;99.90;;;;;;5092755;28;20020;-88
2022/10/01 02:26:49;;;;;;;5.55;3.22;;;13.10;99.90;;;;;;5089583;28;20026;-88
2022/10/01 02:29:18;;;;;;;4.47;2.92;;;13.10;99.90;;;;;;5080695;28;20056;-88
2022/10/01 02:31:49;;;;;;;3.63;3.15;;;13.20;99.90;;;;;;5081801;28;20035;-87
2022/10/01 02:34:17;;;;;;;7.63;3.10;;;13.10;99.90;;;;;;5080915;28;20055;-88
2022/10/01 02:36:48;;;;;;;4.43;3.20;;;13.10;99.90;;;;;;5078589;28;20408;-88
2022/10/01 02:39:16;;;;;;;4.65;2.78;;;13.10;99.90;;;;;;5071742;28;20613;-88
2022/10/01 02:41:48;;;;;;;4.57;2.80;;;13.10;99.90;;;;;;5073454;28;20024;-88
2022/10/01 02:44:20;;;;;;;3.88;2.60;;;13.10;99.90;;;;;;5078045;28;20020;-89
2022/10/01 02:47:20;;;;;;;2.83;2.45;;;13.10;99.90;;;;;;5094962;28;20024;-88
2022/10/01 02:49:53;;;;;;;2.72;2.20;;;13.10;99.90;;;;;;5088335;28;20093;-88
2022/10/01 02:52:44;;;;;;;4.07;2.80;;;13.10;99.90;;;;;;5081120;28;20031;-88
2022/10/01 02:55:11;;;;;;;5.53;2.70;;;13.10;99.90;;;;;;5091680;28;20039;-88
2022/10/01 02:57:37;;;;;;;4.20;2.92;;;13.10;99.90;;;;;;5090401;28;20024;-88
2022/10/01 03:00:07;;;;;;;6.30;2.80;;;13.10;99.90;;;;;;5097819;28;20024;-87
2022/10/01 03:02:33;;;;;;;6.22;2.90;;;13.10;99.90;;;;;;5079700;28;20172;-88
2022/10/01 03:04:59;;;;;;;4.05;2.33;;;13.10;99.90;;;;;;5093287;28;20024;-88
2022/10/01 03:07:26;;;;;;;5.97;2.92;;;13.10;99.90;;;;;;5083106;28;20031;-88
2022/10/01 03:09:52;;;;;;;3.55;2.78;;;13.10;99.90;;;;;;5079213;28;20024;-88
2022/10/01 03:12:18;;;;;;;4.55;2.75;;;13.10;99.90;;;;;;5076796;28;20044;-88
2022/10/01 03:14:44;;;;;;;4.30;3.15;;;13.10;99.90;;;;;;5101675;28;20036;-88
2022/10/01 03:17:11;;;;;;;4.25;3.10;;;13.10;99.90;;;;;;5069767;28;20025;-88
2022/10/01 03:19:37;;;;;;;3.42;2.60;;;13.10;99.90;;;;;;5085448;28;20028;-88
2022/10/01 03:22:03;;;;;;;5.47;3.13;;;13.10;99.90;;;;;;5070435;28;20192;-87
2022/10/01 03:24:28;;;;;;;4.13;2.97;;;13.10;99.90;;;;;;5075483;28;20666;-87
2022/10/01 03:26:56;;;;;;;5.60;3.10;;;13.10;99.90;;;;;;5073014;28;20563;-88
2022/10/01 03:29:25;;;;;;;4.88;3.28;;;13.10;99.90;;;;;;5079689;28;20504;-88
2022/10/01 03:31:54;;;;;;;3.05;2.40;;;13.10;99.90;;;;;;5072643;28;20509;-88
2022/10/01 03:34:20;;;;;;;4.18;2.80;;;13.10;99.90;;;;;;5065254;28;20477;-89
2022/10/01 03:36:45;;;;;;;4.05;2.90;;;13.10;99.90;;;;;;5087333;28;20034;-88
2022/10/01 03:39:12;;;;;;;3.75;2.70;;;13.10;99.90;;;;;;5089103;28;20012;-88
2022/10/01 03:41:38;;;;;;;4.88;2.70;;;13.10;99.90;;;;;;5072473;28;20128;-88
2022/10/01 03:44:04;;;;;;;6.97;2.60;;;13.10;99.90;;;;;;5074481;28;20080;-88
2022/10/01 03:46:30;;;;;;;4.20;2.63;;;13.10;99.90;;;;;;5074305;28;20012;-88
2022/10/01 03:48:59;;;;;;;4.07;2.88;;;13.10;99.90;;;;;;5074521;28;20020;-87
2022/10/01 03:51:24;;;;;;;3.65;2.70;;;13.10;99.90;;;;;;5081884;28;20046;-88
2022/10/01 03:53:50;;;;;;;4.10;2.88;;;13.10;99.90;;;;;;5090982;28;20036;-87
2022/10/01 03:56:17;;;;;;;14.57;3.25;;;13.10;99.90;;;;;;5080222;28;20051;-88
2022/10/01 03:58:42;;;;;;;3.67;3.00;;;13.10;99.90;;;;;;5087584;28;20020;-89
2022/10/01 04:01:08;;;;;;;3.15;2.60;;;13.10;99.90;;;;;;5075682;28;20119;-89
2022/10/01 04:03:34;;;;;;;3.00;2.10;;;13.10;99.90;;;;;;5072027;28;20024;-89
2022/10/01 04:05:59;;;;;;;5.18;2.67;;;13.10;99.90;;;;;;5089955;28;20051;-88
2022/10/01 04:08:25;;;;;;;3.03;2.45;;;13.10;99.90;;;;;;5071980;28;20024;-88
2022/10/01 04:10:51;;;;;;;3.25;2.25;;;13.10;99.90;;;;;;5085483;28;20020;-88
2022/10/01 04:13:17;;;;;;;4.40;2.65;;;13.10;99.90;;;;;;5075894;28;20517;-89
2022/10/01 04:15:43;;;;;;;3.15;2.45;;;13.10;99.90;;;;;;5078382;28;20058;-88
2022/10/01 04:18:08;;;;;;;4.40;2.55;;;13.10;99.90;;;;;;5088402;28;20028;-88
2022/10/01 04:20:36;;;;;;;3.28;2.50;;;13.10;99.90;;;;;;5073304;28;20027;-89
2022/10/01 04:23:03;;;;;;;3.15;2.38;;;13.10;99.90;;;;;;5066572;28;20116;-88
2022/10/01 04:25:29;;;;;;;3.92;2.72;;;13.10;99.90;;;;;;5075175;28;20512;-88
2022/10/01 04:28:03;;;;;;;3.40;2.42;;;13.20;99.90;;;;;;5070416;28;20050;-89
2022/10/01 04:30:32;;;;;;;4.88;2.85;;;13.10;99.90;;;;;;5089733;28;20024;-88
2022/10/01 04:32:58;;;;;;;3.95;2.90;;;13.20;99.90;;;;;;5074039;28;20028;-88
2022/10/01 04:35:24;;;;;;;3.95;3.20;;;13.20;99.90;;;;;;5065173;28;20035;-88
2022/10/01 04:38:11;;;;;;;3.25;2.33;;;13.10;99.90;;;;;;5089750;28;20020;-89
2022/10/01 04:40:37;;;;;;;3.75;2.42;;;13.10;99.90;;;;;;5073376;28;20032;-89
2022/10/01 04:43:09;;;;;;;3.03;2.35;;;13.10;99.90;;;;;;5082534;28;20031;-89
2022/10/01 04:45:36;;;;;;;2.70;2.30;;;13.10;99.90;;;;;;5071919;28;20124;-89
2022/10/01 04:48:03;;;;;;;2.42;1.67;;;13.10;99.90;;;;;;5088538;28;20362;-87
2022/10/01 04:50:29;;;;;;;3.35;2.03;;;13.10;99.90;;;;;;5070500;28;20036;-88
2022/10/01 04:52:55;;;;;;;6.53;2.13;;;13.10;99.90;;;;;;5072138;28;20028;-88
2022/10/01 04:55:21;;;;;;;2.85;2.22;;;13.10;99.90;;;;;;5071610;28;20030;-88
2022/10/01 04:57:50;;;;;;;3.17;2.42;;;13.10;99.90;;;;;;5075569;28;20394;-88
2022/10/01 05:00:20;;;;;;;2.33;1.90;;;13.10;99.90;;;;;;5071112;28;20051;-88
2022/10/01 05:02:48;;;;;;;3.03;2.38;;;13.10;99.90;;;;;;5064562;28;20051;-89
2022/10/01 05:05:14;;;;;;;4.00;2.63;;;13.10;99.90;;;;;;5072231;28;20024;-88
2022/10/01 05:07:41;;;;;;;12.77;5.95;;;13.10;99.90;;;;;;5090837;28;20020;-88
2022/10/01 05:10:10;;;;;;;12.20;6.30;;;13.10;99.90;;;;;;5070465;28;20655;-88
2022/10/01 05:12:36;;;;;;;11.02;6.30;;;13.10;99.90;;;;;;5088880;28;20099;-87
2022/10/01 05:15:02;;;;;;;12.73;6.95;;;13.10;99.90;;;;;;5091438;28;20051;-88
2022/10/01 05:17:33;;;;;;;10.68;6.18;;;13.10;99.90;;;;;;5090255;28;20139;-86
2022/10/01 05:19:59;;;;;;;9.93;6.07;;;13.10;99.90;;;;;;5068736;28;20042;-88
2022/10/01 05:22:25;;;;;;;10.43;6.05;;;13.10;99.90;;;;;;5049388;28;20044;-88
2022/10/01 05:24:50;;;;;;;10.65;5.30;;;13.10;99.90;;;;;;5051554;28;20486;-88
2022/10/01 05:27:16;;;;;;;10.07;5.00;;;13.10;99.90;;;;;;5052440;28;20115;-87
2022/10/01 05:29:42;;;;;;;8.43;4.70;;;13.10;99.90;;;;;;5070884;28;20426;-87
2022/10/01 05:32:12;;;;;;;5.97;4.28;;;13.10;99.90;;;;;;5068989;28;20020;-87
2022/10/01 05:34:38;;;;;;;6.13;3.70;;;13.10;99.90;;;;;;5055865;28;20032;-87
2022/10/01 05:37:10;;;;;;;5.60;3.72;;;13.10;99.90;;;;;;5056294;28;20462;-88
2022/10/01 05:39:35;;;;;;;5.10;3.05;;;13.10;99.90;;;;;;5052961;28;20025;-88
2022/10/01 05:42:03;;;;;;;5.75;3.28;;;13.10;99.90;;;;;;5054089;28;20409;-88
2022/10/01 05:44:36;;;;;;;5.82;2.92;;;13.10;99.90;;;;;;5057416;28;20063;-87
2022/10/01 05:47:03;;;;;;;4.35;2.70;;;13.10;99.90;;;;;;5057676;28;20117;-87
2022/10/01 05:49:29;;;;;;;4.20;2.50;;;13.10;99.90;;;;;;5051836;28;20024;-87
2022/10/01 05:51:55;;;;;;;4.07;2.67;;;13.10;99.90;;;;;;5057392;28;20038;-86
2022/10/01 05:54:22;;;;;;;3.40;2.50;;;13.10;99.90;;;;;;5053689;28;20039;-87
2022/10/01 05:56:49;;;;;;;3.50;2.13;;;13.10;99.90;;;;;;5058293;28;20024;-87
2022/10/01 05:59:17;;;;;;;3.97;2.35;;;13.10;99.90;;;;;;5071078;28;20394;-87
2022/10/01 06:01:43;;;;;;;3.30;2.40;;;13.00;99.90;;;;;;5069290;28;20028;-87
2022/10/01 06:04:12;;;;;;;3.65;1.95;;;13.10;99.90;;;;;;5072391;28;20025;-86
2022/10/01 06:06:45;;;;;;;2.35;1.75;;;13.00;99.90;;;;;;5067874;28;20402;-87
2022/10/01 06:09:11;;;;;;;3.22;1.83;;;13.10;99.90;;;;;;5072436;28;20040;-85
2022/10/01 06:11:38;;;;;;;1.70;1.35;;;13.10;99.90;;;;;;5055496;28;20075;-87
2022/10/01 06:14:12;;;;;;;1.67;1.25;;;13.10;99.90;;;;;;5074002;28;20130;-87
2022/10/01 06:16:38;;;;;;;3.53;1.85;;;13.00;99.90;;;;;;5054483;28;20029;-86
2022/10/01 06:19:03;;;;;;;1.83;1.30;;;13.10;99.90;;;;;;5054401;28;20367;-86
2022/10/01 06:21:30;;;;;;;3.17;1.77;;;13.10;99.90;;;;;;5072421;28;20036;-87
2022/10/01 06:23:56;;;;;;;3.42;1.77;;;13.10;99.90;;;;;;5052178;28;20040;-87
2022/10/01 06:26:23;;;;;;;3.50;1.30;;;13.10;99.90;;;;;;5093858;28;20030;-87
2022/10/01 06:28:49;;;;;;;2.13;1.50;;;13.10;99.90;;;;;;5075236;28;20681;-87
2022/10/01 06:31:15;;;;;;;3.22;1.92;;;13.10;99.90;;;;;;5070963;28;20538;-87
2022/10/01 06:33:41;;;;;;;2.53;1.67;;;13.10;99.90;;;;;;5077339;28;20067;-87
2022/10/01 06:36:07;;;;;;;2.42;1.58;;;13.10;99.90;;;;;;5092215;28;20059;-87
2022/10/01 06:38:35;;;;;;;2.30;1.35;;;13.10;99.90;;;;;;5092127;28;20024;-86
2022/10/01 06:41:03;;;;;;;2.38;1.33;;;13.10;99.90;;;;;;5077495;28;20028;-87
2022/10/01 06:43:30;;;;;;;2.00;1.58;;;13.10;99.90;;;;;;5091208;28;20026;-88
2022/10/01 06:45:59;;;;;;;1.33;0.93;;;13.10;99.90;;;;;;5085400;28;20481;-87
2022/10/01 06:48:24;;;;;;;1.60;1.25;;;13.10;99.90;;;;;;5093519;28;20023;-87
2022/10/01 06:50:53;;;;;;;1.10;1.00;;;13.10;99.90;;;;;;5093954;28;20031;-86
2022/10/01 06:53:19;;;;;;;1.00;0.90;;;13.10;99.90;;;;;;5084459;28;20028;-87
2022/10/01 06:55:45;;;;;;;1.67;1.25;;;13.10;99.90;;;;;;5092983;28;20024;-87
2022/10/01 06:58:26;;;;;;;2.00;1.35;;;13.10;99.90;;;;;;5072804;28;20025;-87
2022/10/01 07:01:00;;;;;;;1.48;1.10;;;13.10;99.90;;;;;;5088624;28;20093;-86
2022/10/01 07:03:26;;;;;;;1.13;0.90;;;13.10;99.90;;;;;;5077196;28;20066;-88
2022/10/01 07:05:52;;;;;;;1.30;1.10;;;13.10;99.90;;;;;;5080306;28;20035;-88
2022/10/01 07:08:22;;;;;;;1.20;0.90;;;13.10;99.90;;;;;;5078054;28;20032;-87
2022/10/01 07:10:48;;;;;;;1.17;1.00;;;13.10;99.90;;;;;;5077842;28;20028;-87
2022/10/01 07:13:16;;;;;;;1.23;1.10;;;13.10;99.90;;;;;;5076483;28;20036;-87
2022/10/01 07:15:45;;;;;;;1.50;1.00;;;13.10;99.90;;;;;;5093042;28;20452;-86
2022/10/01 07:18:12;;;;;;;1.38;1.27;;;13.10;99.90;;;;;;5074305;28;20027;-86
2022/10/01 07:20:45;;;;;;;1.35;0.73;;;13.10;99.90;;;;;;5091256;28;20090;-87
2022/10/01 07:23:11;;;;;;;1.23;0.90;;;13.10;99.90;;;;;;5069982;28;20517;-87
2022/10/01 07:25:39;;;;;;;1.33;1.00;;;13.10;99.90;;;;;;5071431;28;20055;-87
2022/10/01 07:28:07;;;;;;;3.55;1.25;;;13.10;99.90;;;;;;5091414;28;20037;-87
2022/10/01 07:30:35;;;;;;;0.70;0.70;;;13.10;99.90;;;;;;5091224;28;20509;-88
2022/10/01 07:33:00;;;;;;;2.60;0.70;;;13.10;99.90;;;;;;5080344;28;20031;-87
2022/10/01 07:35:27;;;;;;;0.57;0.57;;;13.10;99.90;;;;;;5075777;28;20085;-87
2022/10/01 07:37:55;;;;;;;1.08;1.00;;;13.10;99.90;;;;;;5090267;28;20024;-87
2022/10/01 07:40:21;;;;;;;0.75;0.75;;;13.10;99.90;;;;;;5080022;28;20028;-86
2022/10/01 07:42:55;;;;;;;1.40;0.75;;;13.00;99.90;;;;;;5086761;28;20111;-87
2022/10/01 07:45:21;;;;;;;0.90;0.70;;;13.10;99.90;;;;;;5078240;28;20413;-86
2022/10/01 07:47:59;;;;;;;0.80;0.80;;;13.10;99.90;;;;;;5075137;28;20032;-87
2022/10/01 07:50:26;;;;;;;0.85;0.70;;;13.10;99.90;;;;;;5086163;28;20020;-86
2022/10/01 07:52:53;;;;;;;1.05;0.95;;;13.10;99.90;;;;;;5089018;28;20433;-86
2022/10/01 07:55:22;;;;;;;1.10;1.00;;;13.00;99.90;;;;;;5075822;28;20034;-87
2022/10/01 07:58:01;;;;;;;1.52;1.00;;;13.10;99.90;;;;;;5079708;28;20024;-87
2022/10/01 08:00:29;;;;;;;0.98;0.88;;;13.10;99.90;;;;;;5073657;28;20050;-87
2022/10/01 08:02:55;;;;;;;0.70;0.70;;;13.00;99.90;;;;;;5090961;28;20022;-86
2022/10/01 08:05:27;;;;;;;1.88;1.23;;;13.10;99.90;;;;;;5073652;28;20103;-86
2022/10/01 08:08:00;;;;;;;0.80;0.80;;;13.10;99.90;;;;;;5070545;28;20020;-87
2022/10/01 08:10:27;;;;;;;0.60;0.60;;;13.10;99.90;;;;;;5089014;28;20028;-87
2022/10/01 08:13:00;;;;;;;0.75;0.60;;;13.10;99.90;;;;;;5089460;28;20485;-87
2022/10/01 08:15:26;;;;;;;0.70;0.68;;;13.10;99.90;;;;;;5090366;28;20028;-86
2022/10/01 08:17:52;;;;;;;1.80;1.17;;;13.10;99.90;;;;;;5077994;28;20027;-87
2022/10/01 08:20:19;;;;;;;4.75;2.00;;;13.10;99.90;;;;;;5088900;28;20028;-87
2022/10/01 08:22:45;;;;;;;7.13;2.42;;;13.10;99.90;;;;;;5058558;28;20044;-86
2022/10/01 08:25:10;;;;;;;2.85;1.50;;;13.10;99.90;;;;;;5065946;28;20035;-87
2022/10/01 08:27:36;;;;;;;3.95;1.90;;;13.10;99.90;;;;;;5079401;28;20021;-87
2022/10/01 08:30:03;;;;;;;7.28;1.70;;;13.10;99.90;;;;;;5054557;28;20125;-87
2022/10/01 08:32:30;;;;;;;4.43;1.50;;;13.10;99.90;;;;;;5057684;28;20413;-87
2022/10/01 08:34:56;;;;;;;4.10;1.80;;;13.10;99.90;;;;;;5054811;28;20028;-87
2022/10/01 08:37:28;;;;;;;4.63;1.92;;;13.10;99.90;;;;;;5064142;28;20036;-85
2022/10/01 08:39:55;;;;;;;3.85;1.45;;;13.10;99.90;;;;;;5053918;28;20028;-86
2022/10/01 08:42:30;;;;;;;3.67;1.98;;;13.10;99.90;;;;;;5069397;28;20055;-86
2022/10/01 08:47:50;;;;;;;6.55;4.45;;;13.30;99.90;;;;;;5144525;27;20471;-75
2022/10/01 08:50:41;;;;;;;2.47;1.13;;;13.20;99.90;;;;;;5149580;27;20023;-76
2022/10/01 08:53:15;;;;;;;1.45;1.27;;;13.20;99.90;;;;;;5133150;27;20100;-76
2022/10/01 08:55:41;;;;;;;2.83;0.80;;;13.10;99.90;;;;;;5148690;27;20054;-76
2022/10/01 08:58:13;;;;;;;0.95;0.90;;;12.90;99.90;;;;;;5139906;27;20027;-76
2022/10/01 09:00:42;;;;;;;3.47;2.08;;;12.80;99.90;;;;;;5132966;27;20027;-76
2022/10/01 09:03:11;;;;;;;1.70;0.75;;;12.70;99.90;;;;;;5136682;27;20163;-76
2022/10/01 09:05:44;;;;;;;3.42;2.00;;;12.70;99.90;;;;;;5125379;27;20088;-76
2022/10/01 09:08:52;;;;;;;6.65;3.42;;;12.80;99.90;;;;;;5134505;27;20019;-76
2022/10/01 09:11:48;;;;;;;3.58;2.33;;;13.00;99.90;;;;;;5130519;27;20434;-76
2022/10/01 09:14:45;;;;;;;4.35;2.55;;;13.00;99.90;;;;;;5142564;27;20027;-76
2022/10/01 09:17:25;;;;;;;4.70;2.38;;;13.10;99.90;;;;;;5144654;27;20106;-76
2022/10/01 09:20:09;;;;;;;2.70;1.63;;;13.10;99.90;;;;;;5138762;27;20102;-76
2022/10/01 09:22:49;;;;;;;1.95;0.90;;;13.10;99.90;;;;;;5120638;27;20048;-76
2022/10/01 09:25:26;;;;;;;4.93;0.90;;;13.20;99.90;;;;;;5117863;27;20032;-76
2022/10/01 09:28:17;;;;;;;1.05;0.90;;;13.20;99.90;;;;;;5122491;27;20084;-76
2022/10/01 09:30:58;;;;;;;1.48;0.88;;;13.40;99.90;;;;;;5110457;27;20051;-75
2022/10/01 09:33:35;;;;;;;4.20;1.50;;;13.50;99.90;;;;;;5130368;27;20034;-76
2022/10/01 09:36:15;;;;;;;12.65;5.35;;;13.50;99.90;;;;;;5121715;27;20352;-76
2022/10/01 09:38:42;;;;;;;16.25;5.25;;;13.40;99.90;;;;;;5126379;27;20486;-76
2022/10/01 09:41:10;;;;;;;14.20;6.75;;;13.30;99.90;;;;;;5107767;27;22685;-76
2022/10/01 09:43:38;;;;;;;7.22;3.28;;;13.20;99.90;;;;;;5111042;27;20019;-76
2022/10/01 09:46:12;;;;;;;20.70;8.77;;;13.10;99.90;;;;;;5105369;27;20059;-76
2022/10/01 09:48:58;;;;;;;9.25;2.95;;;13.10;99.90;;;;;;5117922;27;20034;-76
2022/10/01 09:51:41;;;;;;;3.42;1.92;;;13.00;99.90;;;;;;5121044;27;20038;-76
2022/10/01 09:54:20;;;;;;;8.20;4.43;;;13.00;99.90;;;;;;5104261;27;20030;-76
2022/10/01 09:57:23;;;;;;;8.30;3.13;;;13.00;99.90;;;;;;5115572;27;20051;-76
2022/10/01 10:00:16;;;;;;;9.90;4.75;;;13.10;99.90;;;;;;5057236;28;20126;-76
2022/10/01 10:02:53;;;;;;;20.92;10.63;;;13.10;99.90;;;;;;5093822;28;20470;-76
2022/10/01 10:05:37;;;;;;;10.88;5.95;;;13.30;99.90;;;;;;5091784;27;20031;-76
2022/10/01 10:08:32;;;;;;;10.02;5.10;;;13.60;99.90;;;;;;5092920;28;20032;-76
2022/10/01 10:11:01;;;;;;;10.18;5.70;;;14.20;99.90;;;;;;5095561;28;20048;-76
2022/10/01 10:13:30;;;;;;;9.43;5.25;;;14.50;99.90;;;;;;5105384;27;20020;-76
2022/10/01 10:15:57;;;;;;;8.77;4.30;;;14.80;99.90;;;;;;5094341;28;20514;-76
2022/10/01 10:18:37;;;;;;;11.07;5.85;;;15.00;99.90;;;;;;5103414;27;20437;-76
2022/10/01 10:21:16;;;;;;;14.25;6.78;;;15.10;99.90;;;;;;5105734;27;20464;-76
2022/10/01 10:23:51;;;;;;;10.38;3.72;;;15.20;99.90;;;;;;5075557;28;20497;-76
2022/10/01 10:26:39;;;;;;;8.15;4.05;;;15.50;99.90;;;;;;5091460;27;20039;-76
2022/10/01 10:29:07;;;;;;;37.97;15.00;;;15.80;99.90;;;;;;5094222;27;20043;-76
2022/10/01 10:31:44;;;;;;;23.92;10.10;;;16.10;99.90;;;;;;5086718;27;20072;-76
2022/10/01 10:34:25;;;;;;;53.53;24.25;;;16.50;99.90;;;;;;5077522;28;20519;-76
2022/10/01 10:37:03;;;;;;;26.00;12.18;;;16.90;99.90;;;;;;5082906;28;20047;-76
2022/10/01 10:39:33;;;;;;;8.40;4.20;;;17.00;99.90;;;;;;5082800;28;20036;-76
2022/10/01 10:42:00;;;;;;;5.93;2.15;;;17.10;99.90;;;;;;5079250;28;20051;-77
2022/10/01 10:44:35;;;;;;;8.57;2.00;;;16.90;99.90;;;;;;5085271;28;20032;-76
2022/10/01 10:47:04;;;;;;;4.53;2.08;;;17.00;99.90;;;;;;5078464;28;20461;-76
2022/10/01 10:49:33;;;;;;;8.80;3.03;;;17.10;99.90;;;;;;5087795;28;20070;-76
2022/10/01 10:52:00;;;;;;;6.07;2.50;;;17.00;99.90;;;;;;5086064;28;20028;-76
2022/10/01 10:54:36;;;;;;;4.95;1.80;;;16.90;99.90;;;;;;5094981;27;20075;-76
2022/10/01 10:57:40;;;;;;;4.53;1.90;;;17.00;99.90;;;;;;5102643;27;20032;-76
2022/10/01 11:00:12;;;;;;;4.95;2.03;;;16.80;99.90;;;;;;5081142;28;20032;-77
2022/10/01 11:02:39;;;;;;;5.70;1.70;;;16.60;99.90;;;;;;5074159;28;20046;-76
2022/10/01 11:05:37;;;;;;;3.90;1.95;;;16.60;99.90;;;;;;5090189;28;20046;-76
2022/10/01 11:08:07;;;;;;;4.13;1.80;;;16.50;99.90;;;;;;5102238;27;20055;-76
2022/10/01 11:10:54;;;;;;;9.50;2.85;;;16.40;99.90;;;;;;5108053;27;20047;-77
2022/10/01 11:13:31;;;;;;;3.92;1.60;;;16.20;99.90;;;;;;5100277;27;20055;-76
2022/10/01 11:16:30;;;;;;;3.33;1.80;;;16.00;99.90;;;;;;5120979;27;20035;-77
2022/10/01 11:19:07;;;;;;;2.50;1.60;;;15.80;99.90;;;;;;5099280;27;20500;-76
2022/10/01 11:21:48;;;;;;;2.83;1.92;;;15.60;99.90;;;;;;5098342;27;20038;-76
2022/10/01 11:24:23;;;;;;;7.18;2.28;;;15.60;99.90;;;;;;5078274;27;20630;-76
2022/10/01 11:27:03;;;;;;;4.43;2.33;;;15.40;99.90;;;;;;5102069;28;20031;-77
2022/10/01 11:29:41;;;;;;;6.78;2.10;;;15.40;99.90;;;;;;5091696;28;21237;-76
2022/10/01 11:32:25;;;;;;;8.57;2.05;;;15.60;99.90;;;;;;5090692;28;20483;-76
2022/10/01 11:34:59;;;;;;;5.00;2.83;;;15.90;99.90;;;;;;5090474;28;20085;-76
2022/10/01 11:37:57;;;;;;;15.30;4.20;;;16.30;99.90;;;;;;5104348;28;20023;-76
2022/10/01 11:40:25;;;;;;;10.63;4.43;;;16.50;99.90;;;;;;5090710;28;20357;-77
2022/10/01 11:42:56;;;;;;;13.02;5.90;;;16.70;99.90;;;;;;5089193;28;20446;-76
2022/10/01 11:45:28;;;;;;;7.70;3.90;;;16.80;99.90;;;;;;5087218;28;20488;-77
2022/10/01 11:48:03;;;;;;;16.15;6.55;;;16.70;99.90;;;;;;5094476;28;20023;-77
2022/10/01 11:50:32;;;;;;;3.50;1.98;;;16.60;99.90;;;;;;5102657;28;20546;-76
2022/10/01 11:53:03;;;;;;;9.70;3.70;;;16.50;99.90;;;;;;5089784;28;20016;-77
2022/10/01 11:58:49;;;;;;;8.82;1.90;;;16.60;99.90;;;;;;5091088;28;20027;-77
2022/10/01 12:01:41;;;;;;;7.72;2.70;;;16.70;99.90;;;;;;5095960;28;20016;-77
2022/10/01 12:04:20;;;;;;;6.53;2.13;;;16.50;99.90;;;;;;5092515;28;20030;-77
2022/10/01 12:07:12;;;;;;;5.20;2.08;;;16.40;99.90;;;;;;5094525;28;20210;-76
2022/10/01 12:10:02;;;;;;;6.05;2.10;;;16.20;99.90;;;;;;5097839;28;20361;-77
2022/10/01 12:12:37;;;;;;;8.70;2.15;;;16.00;99.90;;;;;;5093182;28;20044;-77
2022/10/01 12:15:09;;;;;;;5.70;2.10;;;15.80;99.90;;;;;;5102390;28;20031;-77
2022/10/01 12:17:53;;;;;;;3.38;2.10;;;15.60;99.90;;;;;;5096384;28;20084;-77
2022/10/01 12:20:43;;;;;;;4.97;1.58;;;15.30;99.90;;;;;;5096060;28;20039;-77
2022/10/01 12:23:16;;;;;;;5.65;1.80;;;15.00;99.90;;;;;;5060801;28;20047;-76
2022/10/01 12:25:42;;;;;;;9.13;2.55;;;15.00;99.90;;;;;;5078939;28;20553;-76
2022/10/01 12:28:15;;;;;;;6.75;2.45;;;15.10;99.90;;;;;;5079112;28;20149;-76
2022/10/01 12:30:57;;;;;;;4.67;2.10;;;15.20;99.90;;;;;;5079407;28;20397;-76
2022/10/01 12:33:55;;;;;;;4.53;2.00;;;15.30;99.90;;;;;;5067285;28;20090;-76
2022/10/01 12:36:21;;;;;;;4.38;2.30;;;15.50;99.90;;;;;;5077422;28;20028;-76
2022/10/01 12:39:08;;;;;;;8.68;1.98;;;15.60;99.90;;;;;;5073081;28;20025;-76
2022/10/01 12:41:43;;;;;;;5.28;2.70;;;15.50;99.90;;;;;;5083116;28;20447;-76
2022/10/01 12:44:12;;;;;;;7.50;2.55;;;15.20;99.90;;;;;;5067055;28;20077;-77
2022/10/01 12:47:07;;;;;;;6.65;2.22;;;14.90;99.90;;;;;;5073806;28;20119;-77
2022/10/01 12:49:51;;;;;;;7.60;2.50;;;14.60;99.90;;;;;;5071892;28;20165;-77
2022/10/01 12:52:48;;;;;;;8.93;3.72;;;14.40;99.90;;;;;;5071269;28;20024;-77
2022/10/01 12:55:19;;;;;;;14.90;5.00;;;14.20;99.90;;;;;;5075976;28;20035;-77
2022/10/01 12:58:11;;;;;;;8.35;3.17;;;14.10;99.90;;;;;;5081532;28;20100;-77
2022/10/01 13:00:45;;;;;;;9.48;5.35;;;14.00;99.90;;;;;;5079569;28;20024;-77
2022/10/01 13:03:21;;;;;;;4.97;2.78;;;13.90;99.90;;;;;;5078316;28;20056;-77
2022/10/01 13:05:50;;;;;;;4.63;1.58;;;13.80;99.90;;;;;;5072146;28;20038;-77
2022/10/01 13:08:15;;;;;;;12.23;4.68;;;13.70;99.90;;;;;;5080490;28;20024;-77
2022/10/01 13:11:02;;;;;;;3.22;1.65;;;13.80;99.90;;;;;;5078153;28;20030;-76
2022/10/01 13:13:32;;;;;;;2.85;1.30;;;14.00;99.90;;;;;;5069721;28;20020;-76
2022/10/01 13:16:16;;;;;;;1.98;1.40;;;14.20;99.90;;;;;;5079847;28;20034;-76
2022/10/01 13:19:09;;;;;;;3.67;1.45;;;14.70;99.90;;;;;;5070940;28;20028;-76